Current Weather

Gao

Gao, Mali (GAGO)

Report from: Wednesday, April 24, 2024 3:00 PM GMT
Current time: Thursday, April 25, 2024 3:53 AM GMT

Nearby weather – Weather history – Daily summaries
Weather forecast

Temperature45.0°C (113.0°F)
Heat index41.3°C (106.3°F)
Dew point3.0°C (37.4°F)
Winds 7 kts (3.6 m/s, 8.1 mph) North-Northwest (340°)
Visibility4.3 mi. (7 km)
Altimeter29.68 in.Hg (1005 mB)
Relative humidity8 %
Density altitude3,729 ft. (1,137 m)
Remarks No significant changes expected in the next two hours
Flight conditions Marginal Visual Meteorological Conditions
Raw dataGAGO 241500Z 34007KT 7000 NSC 45/03 Q1005 NOSIG
An error has occurred. This application may no longer respond until reloaded. Reload 🗙